Time;durP1;ratioP1;P1;durP2;ratioP2;P2;SDS_P1;SDS_P2;PMS_P1;PMS_P2;Temp;Humidity;BMP_temperature;BMP_pressure;BME280_temperature;BME280_humidity;BME280_pressure;Samples;Min_cycle;Max_cycle;Signal;HPM_P1;HPM_P2
2022/03/17 00:00:13;;;;;;;49.17;33.25;;;12.10;99.90;;;;;;5071740;28;20045;-52
2022/03/17 00:02:39;;;;;;;49.72;31.42;;;12.20;99.90;;;;;;5071337;28;20115;-52
2022/03/17 00:05:10;;;;;;;46.42;31.58;;;12.10;99.90;;;;;;5071478;28;20021;-53
2022/03/17 00:07:36;;;;;;;53.63;33.22;;;12.10;99.90;;;;;;5071204;28;20051;-53
2022/03/17 00:10:04;;;;;;;51.95;32.70;;;12.10;99.90;;;;;;5071025;28;20024;-52
2022/03/17 00:12:30;;;;;;;51.30;31.10;;;12.10;99.90;;;;;;5071225;28;20020;-52
2022/03/17 00:14:56;;;;;;;47.40;33.70;;;12.10;99.90;;;;;;5071424;28;20029;-53
2022/03/17 00:17:21;;;;;;;52.72;34.95;;;12.10;99.90;;;;;;5071489;28;20078;-52
2022/03/17 00:19:47;;;;;;;49.92;34.20;;;12.10;99.90;;;;;;5071341;28;20425;-53
2022/03/17 00:22:16;;;;;;;47.85;30.92;;;12.00;99.90;;;;;;5071268;28;20119;-53
2022/03/17 00:24:43;;;;;;;47.22;32.22;;;12.10;99.90;;;;;;5070912;28;20115;-52
2022/03/17 00:27:09;;;;;;;49.13;32.35;;;12.10;99.90;;;;;;5071335;28;20074;-52
2022/03/17 00:29:37;;;;;;;53.20;34.35;;;12.10;99.90;;;;;;5071480;28;20020;-53
2022/03/17 00:32:04;;;;;;;48.53;33.63;;;12.10;99.90;;;;;;5071423;28;20086;-52
2022/03/17 00:34:30;;;;;;;51.20;34.20;;;12.00;99.90;;;;;;5070035;28;20472;-52
2022/03/17 00:36:55;;;;;;;45.78;32.20;;;12.00;99.90;;;;;;5070765;28;20037;-52
2022/03/17 00:39:21;;;;;;;46.60;30.80;;;12.00;99.90;;;;;;5070696;28;20036;-52
2022/03/17 00:41:47;;;;;;;44.65;31.60;;;12.00;99.90;;;;;;5070746;28;20081;-52
2022/03/17 00:44:14;;;;;;;39.15;28.60;;;12.00;99.90;;;;;;5071115;28;20432;-52
2022/03/17 00:46:40;;;;;;;30.75;22.00;;;12.00;99.90;;;;;;5071162;28;20024;-52
2022/03/17 00:49:06;;;;;;;26.20;16.13;;;12.00;99.90;;;;;;5071499;28;20052;-53
2022/03/17 00:51:32;;;;;;;22.73;17.15;;;11.90;99.90;;;;;;5071623;28;20017;-52
2022/03/17 00:53:58;;;;;;;20.17;14.75;;;11.80;99.90;;;;;;5071303;28;20036;-53
2022/03/17 00:56:23;;;;;;;20.98;16.38;;;11.80;99.90;;;;;;5071101;28;20029;-52
2022/03/17 00:58:49;;;;;;;22.65;16.65;;;11.80;99.90;;;;;;5070517;28;20409;-52
2022/03/17 01:01:16;;;;;;;20.05;14.98;;;11.80;99.90;;;;;;5070669;28;20047;-52
2022/03/17 01:03:46;;;;;;;23.98;18.65;;;11.80;99.90;;;;;;5070099;28;20037;-52
2022/03/17 01:06:12;;;;;;;33.13;22.52;;;11.70;99.90;;;;;;5070185;28;20020;-53
2022/03/17 01:08:38;;;;;;;37.22;24.75;;;11.50;99.90;;;;;;5070463;28;20078;-52
2022/03/17 01:11:05;;;;;;;34.15;25.25;;;11.10;99.90;;;;;;5070226;28;20473;-52
2022/03/17 01:13:31;;;;;;;33.50;23.70;;;10.80;99.90;;;;;;5070190;28;20028;-52
2022/03/17 01:15:58;;;;;;;36.40;25.90;;;10.50;99.90;;;;;;5069985;28;20417;-52
2022/03/17 01:18:24;;;;;;;36.42;27.70;;;10.30;99.90;;;;;;5069936;28;20401;-52
2022/03/17 01:20:53;;;;;;;40.88;27.23;;;10.20;99.90;;;;;;5070337;28;20025;-52
2022/03/17 01:23:19;;;;;;;42.75;29.70;;;10.10;99.90;;;;;;5069980;28;20035;-52
2022/03/17 01:25:45;;;;;;;42.17;27.88;;;10.10;99.90;;;;;;5070325;28;20362;-52
2022/03/17 01:28:11;;;;;;;45.38;29.02;;;10.00;99.90;;;;;;5070318;28;20031;-52
2022/03/17 01:30:36;;;;;;;45.13;28.83;;;9.90;99.90;;;;;;5070440;28;20028;-52
2022/03/17 01:33:03;;;;;;;50.42;32.15;;;9.90;99.90;;;;;;5070336;28;20367;-52
2022/03/17 01:35:29;;;;;;;51.20;31.90;;;9.90;99.90;;;;;;5069828;28;20119;-52
2022/03/17 01:37:54;;;;;;;48.47;30.67;;;9.90;99.90;;;;;;5070171;28;20465;-52
2022/03/17 01:40:20;;;;;;;46.05;29.73;;;9.90;99.90;;;;;;5069932;28;20391;-52
2022/03/17 01:42:45;;;;;;;46.80;28.30;;;9.80;99.90;;;;;;5069879;28;20024;-52
2022/03/17 01:45:11;;;;;;;43.63;27.85;;;9.80;99.90;;;;;;5069811;28;20021;-52
2022/03/17 01:47:38;;;;;;;45.03;27.02;;;9.70;99.90;;;;;;5070292;28;20029;-52
2022/03/17 01:50:09;;;;;;;44.65;28.00;;;9.70;99.90;;;;;;5069600;28;20054;-52
2022/03/17 01:52:35;;;;;;;40.22;27.60;;;9.60;99.90;;;;;;5070103;28;20078;-52
2022/03/17 01:55:02;;;;;;;41.35;24.88;;;9.70;99.90;;;;;;5069977;28;20032;-52
2022/03/17 01:57:27;;;;;;;44.05;26.80;;;9.60;99.90;;;;;;5070011;28;20103;-52
2022/03/17 01:59:53;;;;;;;36.83;25.13;;;9.70;99.90;;;;;;5069969;28;20140;-52
2022/03/17 02:02:19;;;;;;;39.88;25.55;;;9.70;99.90;;;;;;5069778;28;20028;-52
2022/03/17 02:04:47;;;;;;;35.60;25.42;;;9.70;99.90;;;;;;5069973;28;20549;-53
2022/03/17 02:07:14;;;;;;;37.22;24.77;;;9.70;99.90;;;;;;5069547;28;20094;-52
2022/03/17 02:09:41;;;;;;;33.45;23.65;;;9.70;99.90;;;;;;5070092;28;20027;-52
2022/03/17 02:15:00;;;;;;;35.50;22.30;;;9.70;99.90;;;;;;5070299;28;20509;-52
2022/03/17 02:17:27;;;;;;;34.60;23.88;;;9.70;99.90;;;;;;5069692;28;20496;-52
2022/03/17 02:19:53;;;;;;;33.85;21.92;;;9.70;99.90;;;;;;5070471;28;20017;-52
2022/03/17 02:22:21;;;;;;;31.77;22.60;;;9.70;99.90;;;;;;5069604;28;20096;-52
2022/03/17 02:27:45;;;;;;;33.67;22.50;;;9.60;99.90;;;;;;5070372;28;20028;-52
2022/03/17 02:30:12;;;;;;;31.15;22.15;;;9.60;99.90;;;;;;5072361;28;20040;-52
2022/03/17 02:32:38;;;;;;;34.63;21.73;;;9.60;99.90;;;;;;5073629;28;20266;-52
2022/03/17 02:35:10;;;;;;;31.92;21.63;;;9.60;99.90;;;;;;5073535;28;20101;-53
2022/03/17 02:37:37;;;;;;;29.30;22.30;;;9.60;99.90;;;;;;5074014;28;20496;-53
2022/03/17 02:40:05;;;;;;;29.80;21.08;;;9.60;99.90;;;;;;5073890;28;20115;-53
2022/03/17 02:42:31;;;;;;;34.80;21.88;;;9.60;99.90;;;;;;5072842;28;20016;-52
2022/03/17 02:45:01;;;;;;;30.75;20.10;;;9.60;99.90;;;;;;5072735;28;20093;-52
2022/03/17 02:47:27;;;;;;;27.48;20.60;;;9.60;99.90;;;;;;5073014;28;20025;-53
2022/03/17 02:49:57;;;;;;;29.45;19.80;;;9.60;99.90;;;;;;5072616;28;20070;-52
2022/03/17 02:52:24;;;;;;;28.20;20.60;;;9.50;99.90;;;;;;5072961;28;20035;-52
2022/03/17 02:54:51;;;;;;;29.17;19.23;;;9.50;99.90;;;;;;5072530;28;20308;-52
2022/03/17 02:57:17;;;;;;;30.17;19.85;;;9.50;99.90;;;;;;5073374;28;20395;-52
2022/03/17 02:59:43;;;;;;;29.83;18.92;;;9.50;99.90;;;;;;5073192;28;20401;-52
2022/03/17 03:02:09;;;;;;;25.42;17.45;;;9.50;99.90;;;;;;5072489;28;20032;-52
2022/03/17 03:04:34;;;;;;;28.13;18.35;;;9.50;99.90;;;;;;5072602;28;20047;-52
2022/03/17 03:07:06;;;;;;;21.67;16.85;;;9.50;99.90;;;;;;5072317;28;20044;-52
2022/03/17 03:09:32;;;;;;;23.85;17.55;;;9.40;99.90;;;;;;5072471;28;20465;-52
2022/03/17 03:11:58;;;;;;;22.40;17.27;;;9.40;99.90;;;;;;5072201;28;20464;-52
2022/03/17 03:14:24;;;;;;;22.95;16.80;;;9.40;99.90;;;;;;5072538;28;20066;-52
2022/03/17 03:16:50;;;;;;;24.02;17.10;;;9.30;99.90;;;;;;5072327;28;20063;-52
2022/03/17 03:19:16;;;;;;;22.75;16.60;;;9.20;99.90;;;;;;5072081;28;20027;-52
2022/03/17 03:21:44;;;;;;;19.70;16.35;;;9.20;99.90;;;;;;5072528;28;20024;-52
2022/03/17 03:24:11;;;;;;;22.83;17.52;;;9.20;99.90;;;;;;5071693;28;20311;-52
2022/03/17 03:26:37;;;;;;;19.85;17.17;;;9.20;99.90;;;;;;5070984;28;20024;-52
2022/03/17 03:29:36;;;;;;;20.98;16.85;;;9.20;99.90;;;;;;5073312;28;20103;-52
2022/03/17 03:31:57;;;;;;;21.63;17.33;;;9.10;99.90;;;;;;5071199;28;20127;-52
2022/03/17 03:34:24;;;;;;;20.52;15.50;;;9.20;99.90;;;;;;5072111;28;20395;-53
2022/03/17 03:39:35;;;;;;;21.65;13.27;;;9.10;99.90;;;;;;5072152;28;20421;-52
2022/03/17 03:42:02;;;;;;;16.35;14.25;;;9.20;99.90;;;;;;5070726;28;20348;-52
2022/03/17 03:44:27;;;;;;;20.45;12.93;;;9.20;99.90;;;;;;5071516;28;20060;-52
2022/03/17 03:46:53;;;;;;;18.63;12.98;;;9.20;99.90;;;;;;5071962;28;20063;-52
2022/03/17 03:49:20;;;;;;;15.88;11.68;;;9.20;99.90;;;;;;5071654;28;20103;-52
2022/03/17 03:51:46;;;;;;;15.82;11.90;;;9.10;99.90;;;;;;5072047;28;20508;-52
2022/03/17 03:54:16;;;;;;;16.02;11.05;;;9.10;99.90;;;;;;5071317;28;20032;-52
2022/03/17 03:56:54;;;;;;;15.30;11.23;;;9.10;99.90;;;;;;5071658;28;20400;-52
2022/03/17 03:59:22;;;;;;;14.77;11.23;;;9.10;99.90;;;;;;5071744;28;20028;-53
2022/03/17 04:01:50;;;;;;;14.93;10.70;;;9.10;99.90;;;;;;5071639;28;20024;-52
2022/03/17 04:04:19;;;;;;;16.52;11.43;;;9.10;99.90;;;;;;5070893;28;20029;-53
2022/03/17 04:06:50;;;;;;;13.95;11.18;;;9.10;99.90;;;;;;5071066;28;20357;-52
2022/03/17 04:09:23;;;;;;;18.55;11.70;;;9.10;99.90;;;;;;5071813;28;20469;-52
2022/03/17 04:11:49;;;;;;;13.82;11.05;;;9.00;99.90;;;;;;5071171;28;20040;-52
2022/03/17 04:14:16;;;;;;;16.52;11.00;;;9.00;99.90;;;;;;5070913;28;20548;-52
2022/03/17 04:16:42;;;;;;;12.40;10.27;;;9.10;99.90;;;;;;5070819;28;20056;-53
2022/03/17 04:19:12;;;;;;;12.45;9.80;;;9.10;99.90;;;;;;5070998;28;20043;-52
2022/03/17 04:21:38;;;;;;;12.90;9.70;;;9.00;99.90;;;;;;5071126;28;20482;-52
2022/03/17 04:24:04;;;;;;;16.08;10.50;;;9.00;99.90;;;;;;5070648;28;20031;-52
2022/03/17 04:26:30;;;;;;;14.00;9.60;;;9.10;99.90;;;;;;5070629;28;20111;-52
2022/03/17 04:28:56;;;;;;;12.02;8.90;;;9.00;99.90;;;;;;5071001;28;20117;-52
2022/03/17 04:31:22;;;;;;;10.68;8.73;;;9.10;99.90;;;;;;5071043;28;20104;-52
2022/03/17 04:33:51;;;;;;;11.82;9.05;;;9.00;99.90;;;;;;5070736;28;20017;-53
2022/03/17 04:36:18;;;;;;;12.40;7.70;;;9.00;99.90;;;;;;5070963;28;20111;-52
2022/03/17 04:38:44;;;;;;;10.82;7.95;;;9.00;99.90;;;;;;5071033;28;20029;-52
2022/03/17 04:41:10;;;;;;;12.70;8.93;;;9.00;99.90;;;;;;5070724;28;20024;-53
2022/03/17 04:43:39;;;;;;;11.07;7.65;;;9.10;99.90;;;;;;5068935;28;20025;-52
2022/03/17 04:46:08;;;;;;;9.40;8.40;;;9.10;99.90;;;;;;5070247;28;20359;-52
2022/03/17 04:48:35;;;;;;;9.20;8.27;;;9.10;99.90;;;;;;5070594;28;20028;-53
2022/03/17 04:51:01;;;;;;;12.43;8.82;;;9.10;99.90;;;;;;5069975;28;20224;-52
2022/03/17 04:53:27;;;;;;;10.63;8.32;;;9.00;99.90;;;;;;5070175;28;20509;-52
2022/03/17 04:55:57;;;;;;;13.63;8.70;;;9.00;99.90;;;;;;5070407;28;20446;-52
2022/03/17 04:58:22;;;;;;;13.88;9.25;;;9.00;99.90;;;;;;5070753;28;20509;-52
2022/03/17 05:00:48;;;;;;;14.20;8.15;;;9.00;99.90;;;;;;5070414;28;20166;-52
2022/03/17 05:03:14;;;;;;;12.20;8.20;;;9.00;99.90;;;;;;5070221;28;20116;-52
2022/03/17 05:05:40;;;;;;;14.02;9.23;;;9.00;99.90;;;;;;5070195;28;20021;-52
2022/03/17 05:08:06;;;;;;;13.15;9.05;;;9.00;99.90;;;;;;5070197;28;20045;-52
2022/03/17 05:10:35;;;;;;;18.27;8.68;;;9.00;99.90;;;;;;5070492;28;20405;-52
2022/03/17 05:13:03;;;;;;;15.30;8.93;;;9.00;99.90;;;;;;5070353;28;20759;-52
2022/03/17 05:15:28;;;;;;;13.98;8.90;;;9.10;99.90;;;;;;5069918;28;20016;-52
2022/03/17 05:17:54;;;;;;;11.10;8.50;;;9.20;99.90;;;;;;5070569;28;20292;-52
2022/03/17 05:20:20;;;;;;;13.50;8.23;;;9.00;99.90;;;;;;5070864;28;20102;-52
2022/03/17 05:22:45;;;;;;;11.60;8.50;;;8.90;99.90;;;;;;5070421;28;20036;-52
2022/03/17 05:25:11;;;;;;;12.13;9.52;;;8.90;99.90;;;;;;5070310;28;20024;-52
2022/03/17 05:27:49;;;;;;;11.57;9.27;;;8.90;99.90;;;;;;5071086;28;20436;-52
2022/03/17 05:30:16;;;;;;;12.48;8.98;;;9.00;99.90;;;;;;5071148;28;20116;-52
2022/03/17 05:32:43;;;;;;;11.07;9.10;;;9.00;99.90;;;;;;5070012;28;20037;-52
2022/03/17 05:35:10;;;;;;;12.23;9.43;;;9.00;99.90;;;;;;5069892;28;20025;-52
2022/03/17 05:37:36;;;;;;;14.68;8.93;;;8.90;99.90;;;;;;5070503;28;20086;-52
2022/03/17 05:40:04;;;;;;;15.93;9.10;;;8.80;99.90;;;;;;5069960;28;20020;-52
2022/03/17 05:42:31;;;;;;;16.80;9.45;;;8.80;99.90;;;;;;5070318;28;20031;-52
2022/03/17 05:44:56;;;;;;;14.52;8.40;;;8.80;99.90;;;;;;5085241;28;20051;-53
2022/03/17 05:47:22;;;;;;;11.55;8.57;;;8.80;99.90;;;;;;5070022;28;20417;-52
2022/03/17 05:49:48;;;;;;;13.77;8.60;;;8.80;99.90;;;;;;5070303;28;20267;-52
2022/03/17 05:52:14;;;;;;;10.77;7.88;;;8.80;99.90;;;;;;5070284;28;20485;-52
2022/03/17 05:54:40;;;;;;;10.60;7.55;;;8.70;99.90;;;;;;5069813;28;20576;-52
2022/03/17 05:57:06;;;;;;;8.52;7.50;;;8.70;99.90;;;;;;5069986;28;20029;-52
2022/03/17 05:59:32;;;;;;;9.02;7.05;;;8.70;99.90;;;;;;5070334;28;20033;-52
2022/03/17 06:01:58;;;;;;;12.30;7.72;;;8.70;99.90;;;;;;5069662;28;20126;-52
2022/03/17 06:04:24;;;;;;;16.50;9.07;;;8.70;99.90;;;;;;5073275;28;20481;-52
2022/03/17 06:06:50;;;;;;;11.98;7.68;;;8.70;99.90;;;;;;5073503;28;20038;-52
2022/03/17 06:09:15;;;;;;;11.95;8.27;;;8.70;99.90;;;;;;5073543;28;20397;-52
2022/03/17 06:11:41;;;;;;;9.77;7.45;;;8.70;99.90;;;;;;5073480;28;20025;-52
2022/03/17 06:14:07;;;;;;;11.63;7.55;;;8.70;99.90;;;;;;5073222;28;20092;-52
2022/03/17 06:16:34;;;;;;;11.88;6.93;;;8.70;99.90;;;;;;5073130;28;20051;-52
2022/03/17 06:18:59;;;;;;;8.98;6.45;;;8.70;99.90;;;;;;5073811;28;20021;-52
2022/03/17 06:21:25;;;;;;;12.75;6.28;;;8.70;99.90;;;;;;5077903;28;20070;-52
2022/03/17 06:23:50;;;;;;;8.57;6.00;;;8.60;99.90;;;;;;5076431;28;20032;-52
2022/03/17 06:26:16;;;;;;;8.73;5.28;;;8.70;99.90;;;;;;5085420;28;20021;-52
2022/03/17 06:28:45;;;;;;;9.40;5.80;;;8.60;99.90;;;;;;5078040;28;20066;-52
2022/03/17 06:31:10;;;;;;;10.57;6.00;;;8.60;99.90;;;;;;5081562;28;20419;-52
2022/03/17 06:33:36;;;;;;;7.68;5.65;;;8.70;99.90;;;;;;5082526;28;20025;-52
2022/03/17 06:36:01;;;;;;;11.32;5.53;;;8.70;99.90;;;;;;5079544;28;20138;-52
2022/03/17 06:38:27;;;;;;;7.80;4.93;;;8.60;99.90;;;;;;5073150;28;20056;-52
2022/03/17 06:40:53;;;;;;;8.90;5.57;;;8.60;99.90;;;;;;5080062;28;20038;-52
2022/03/17 06:43:18;;;;;;;5.90;5.25;;;8.70;99.90;;;;;;5086761;28;20468;-52
2022/03/17 06:45:44;;;;;;;11.95;5.97;;;8.70;99.90;;;;;;5087383;28;20035;-52
2022/03/17 06:48:10;;;;;;;12.05;5.65;;;8.70;99.90;;;;;;5089784;28;20389;-52
2022/03/17 06:50:36;;;;;;;11.85;5.82;;;8.70;99.90;;;;;;5080375;28;20489;-52
2022/03/17 06:53:02;;;;;;;7.20;5.80;;;8.80;99.90;;;;;;5077150;28;20027;-52
2022/03/17 06:55:28;;;;;;;8.98;5.63;;;8.80;99.90;;;;;;5079454;28;20032;-52
2022/03/17 06:57:54;;;;;;;8.93;5.90;;;8.80;99.90;;;;;;5077311;28;20508;-51
2022/03/17 07:00:23;;;;;;;10.98;5.70;;;8.90;99.90;;;;;;5077284;28;20031;-51
2022/03/17 07:02:48;;;;;;;10.50;5.57;;;8.90;99.90;;;;;;5084833;28;20474;-52
2022/03/17 07:05:14;;;;;;;19.80;6.43;;;8.90;99.90;;;;;;5076789;28;20043;-52
2022/03/17 07:07:41;;;;;;;6.28;5.68;;;9.00;99.90;;;;;;5077404;28;20062;-52
2022/03/17 07:10:07;;;;;;;13.88;5.88;;;9.10;99.90;;;;;;5071760;28;20062;-52
2022/03/17 07:12:34;;;;;;;7.60;5.78;;;9.10;99.90;;;;;;5073855;28;20645;-52
2022/03/17 07:15:00;;;;;;;10.63;6.00;;;9.10;99.90;;;;;;5076432;28;20141;-52
2022/03/17 07:17:26;;;;;;;12.57;5.85;;;9.10;99.90;;;;;;5072755;28;20032;-52
2022/03/17 07:22:27;;;;;;;12.27;5.63;;;9.20;99.90;;;;;;5079619;28;20135;-52
2022/03/17 07:24:53;;;;;;;11.75;6.53;;;9.30;99.90;;;;;;5071606;28;20028;-52
2022/03/17 07:27:21;;;;;;;13.00;6.25;;;9.40;99.90;;;;;;5075831;28;20027;-52
2022/03/17 07:29:47;;;;;;;15.35;6.43;;;9.40;99.90;;;;;;5080699;28;20158;-52
2022/03/17 07:32:13;;;;;;;9.30;5.50;;;9.40;99.90;;;;;;5075560;28;20024;-51
2022/03/17 07:34:38;;;;;;;11.38;6.00;;;9.30;99.90;;;;;;5075412;28;20032;-51
2022/03/17 07:37:05;;;;;;;10.35;6.20;;;9.30;99.90;;;;;;5076069;28;20068;-53
2022/03/17 07:39:30;;;;;;;14.60;6.00;;;9.20;99.90;;;;;;5068908;28;20405;-51
2022/03/17 07:41:56;;;;;;;11.63;6.15;;;9.10;99.90;;;;;;5070074;28;20032;-51
2022/03/17 07:44:22;;;;;;;11.68;5.88;;;9.20;99.90;;;;;;5071221;28;20033;-51
2022/03/17 07:46:48;;;;;;;9.02;6.05;;;9.20;99.90;;;;;;5066364;28;20025;-51
2022/03/17 07:49:14;;;;;;;7.88;4.82;;;9.10;99.90;;;;;;5068860;28;20066;-51
2022/03/17 07:51:40;;;;;;;9.10;4.65;;;8.90;99.90;;;;;;5075717;28;20078;-51
2022/03/17 07:54:07;;;;;;;7.00;4.80;;;8.90;99.90;;;;;;5073497;28;20016;-51
2022/03/17 07:56:33;;;;;;;7.70;5.20;;;9.00;99.90;;;;;;5067886;28;20030;-51
2022/03/17 07:59:00;;;;;;;10.60;5.22;;;9.10;99.90;;;;;;5068844;28;20043;-51
2022/03/17 08:01:26;;;;;;;14.18;5.25;;;9.10;99.90;;;;;;5073362;28;20023;-51
2022/03/17 08:03:55;;;;;;;8.23;4.63;;;9.10;99.90;;;;;;5075424;28;20116;-52
2022/03/17 08:06:25;;;;;;;6.47;4.70;;;9.20;99.90;;;;;;5074801;28;20413;-51
2022/03/17 08:08:51;;;;;;;13.60;4.60;;;9.00;99.90;;;;;;5070526;28;20258;-51
2022/03/17 08:11:16;;;;;;;8.50;4.95;;;9.00;99.90;;;;;;5076512;28;20071;-51
2022/03/17 08:13:42;;;;;;;10.93;4.80;;;9.00;99.90;;;;;;5068355;28;20044;-51
2022/03/17 08:16:12;;;;;;;7.22;3.95;;;9.10;99.90;;;;;;5070922;28;20393;-51
2022/03/17 08:18:38;;;;;;;6.32;4.22;;;9.00;99.90;;;;;;5073325;28;20039;-51
2022/03/17 08:21:04;;;;;;;9.02;4.22;;;9.10;99.90;;;;;;5074239;28;20029;-51
2022/03/17 08:23:30;;;;;;;7.93;4.20;;;9.10;99.90;;;;;;5072905;28;20040;-51
2022/03/17 08:25:55;;;;;;;8.95;3.90;;;9.20;99.90;;;;;;5068785;28;20461;-51
2022/03/17 08:28:21;;;;;;;5.88;3.55;;;9.30;99.90;;;;;;5071268;28;20152;-51
2022/03/17 08:30:47;;;;;;;9.95;4.85;;;9.40;99.90;;;;;;5078697;28;20500;-51
2022/03/17 08:33:15;;;;;;;9.05;5.25;;;9.40;99.90;;;;;;5071673;28;20043;-52
2022/03/17 08:35:42;;;;;;;9.38;5.18;;;9.40;99.90;;;;;;5068079;28;20020;-52
2022/03/17 08:38:08;;;;;;;8.80;4.18;;;9.40;99.90;;;;;;5067906;28;20020;-51
2022/03/17 08:40:35;;;;;;;11.10;5.47;;;9.50;99.90;;;;;;5066678;28;20374;-51
2022/03/17 08:43:01;;;;;;;16.75;6.15;;;9.60;99.90;;;;;;5071512;28;20577;-52
2022/03/17 08:50:55;;;;;;;10.32;4.25;;;9.70;99.90;;;;;;5066221;28;20088;-51
2022/03/17 08:53:21;;;;;;;5.93;4.68;;;9.70;99.90;;;;;;5069821;28;20477;-51
2022/03/17 08:55:49;;;;;;;10.50;5.05;;;9.80;99.90;;;;;;5070833;28;20056;-52
2022/03/17 08:58:16;;;;;;;6.82;5.07;;;9.70;99.90;;;;;;5073387;28;20035;-51
2022/03/17 09:00:42;;;;;;;7.32;4.50;;;9.70;99.90;;;;;;5070073;28;20044;-52
2022/03/17 09:03:08;;;;;;;7.55;4.40;;;9.80;99.90;;;;;;5067101;28;20028;-52
2022/03/17 09:05:35;;;;;;;8.63;4.00;;;9.80;99.90;;;;;;5072402;28;20040;-51
2022/03/17 09:08:04;;;;;;;8.07;4.03;;;9.90;99.90;;;;;;5067152;28;20126;-52
2022/03/17 09:10:31;;;;;;;5.03;3.05;;;9.90;99.90;;;;;;5067498;28;20059;-51
2022/03/17 09:12:57;;;;;;;9.93;3.80;;;10.10;99.90;;;;;;5060097;28;20058;-51
2022/03/17 09:15:26;;;;;;;5.68;3.05;;;10.00;99.90;;;;;;5064129;28;20035;-51
2022/03/17 09:17:52;;;;;;;8.35;3.08;;;9.90;99.90;;;;;;5064106;28;20090;-51
2022/03/17 09:20:18;;;;;;;7.72;3.42;;;9.90;99.90;;;;;;5067560;28;20397;-52
2022/03/17 09:22:44;;;;;;;10.27;3.42;;;10.00;99.90;;;;;;5072364;28;20024;-52
2022/03/17 09:25:11;;;;;;;13.68;4.20;;;10.10;99.90;;;;;;5070535;28;20450;-52
2022/03/17 09:27:37;;;;;;;6.35;3.53;;;10.20;99.90;;;;;;5067102;28;20029;-52
2022/03/17 09:30:04;;;;;;;4.68;3.35;;;10.10;99.90;;;;;;5066840;28;20089;-52
2022/03/17 09:32:29;;;;;;;4.85;3.67;;;10.00;99.90;;;;;;5070504;28;20029;-52
2022/03/17 09:34:57;;;;;;;7.18;3.65;;;10.00;99.90;;;;;;5076211;28;20108;-52
2022/03/17 09:37:22;;;;;;;18.00;4.38;;;10.10;99.90;;;;;;5070290;28;20029;-52
2022/03/17 09:39:49;;;;;;;11.35;4.43;;;10.20;99.90;;;;;;5074678;28;20464;-52
2022/03/17 09:42:17;;;;;;;9.43;3.78;;;10.20;99.90;;;;;;5067608;28;20112;-52
2022/03/17 09:44:47;;;;;;;7.85;4.13;;;10.30;99.90;;;;;;5071854;28;20572;-52
2022/03/17 09:47:20;;;;;;;8.52;4.43;;;10.20;99.90;;;;;;5071136;28;20381;-52
2022/03/17 09:49:53;;;;;;;14.05;4.35;;;10.30;99.90;;;;;;5069082;28;20481;-52
2022/03/17 09:52:20;;;;;;;9.35;4.35;;;10.40;99.90;;;;;;5072891;28;20077;-52
2022/03/17 09:54:49;;;;;;;7.93;4.20;;;10.50;99.90;;;;;;5075480;28;20025;-52
2022/03/17 09:57:16;;;;;;;8.55;4.90;;;10.40;99.90;;;;;;5071813;28;20026;-52
2022/03/17 09:59:44;;;;;;;12.18;5.70;;;10.60;99.90;;;;;;5071165;28;20032;-52
2022/03/17 10:02:14;;;;;;;7.82;4.78;;;10.70;99.90;;;;;;5071167;28;20079;-52
2022/03/17 10:04:41;;;;;;;8.98;4.57;;;10.70;99.90;;;;;;5074605;28;20040;-52
2022/03/17 10:07:07;;;;;;;9.73;4.82;;;10.60;99.90;;;;;;5074357;28;20072;-52
2022/03/17 10:09:33;;;;;;;9.48;4.65;;;10.90;99.90;;;;;;5072097;28;20039;-52
2022/03/17 10:12:08;;;;;;;11.27;4.25;;;11.00;99.90;;;;;;5074505;28;20024;-52
2022/03/17 10:14:36;;;;;;;10.35;4.22;;;10.90;99.90;;;;;;5069915;28;20029;-52
2022/03/17 10:17:28;;;;;;;7.85;3.78;;;10.80;99.90;;;;;;5074914;28;20032;-52
2022/03/17 10:20:22;;;;;;;14.47;4.10;;;10.80;99.90;;;;;;5071567;28;20029;-52
2022/03/17 10:22:55;;;;;;;9.10;3.15;;;11.00;99.90;;;;;;5076195;28;20050;-52
2022/03/17 10:25:22;;;;;;;12.55;4.20;;;11.10;99.90;;;;;;5070693;28;20727;-52
2022/03/17 10:27:49;;;;;;;8.50;4.05;;;11.20;99.90;;;;;;5072681;28;20020;-52
2022/03/17 10:30:30;;;;;;;7.25;3.60;;;11.10;99.90;;;;;;5073099;28;20083;-52
2022/03/17 10:32:58;;;;;;;4.70;3.53;;;11.30;99.90;;;;;;5073021;28;20165;-52
2022/03/17 10:35:33;;;;;;;10.73;3.88;;;11.50;99.90;;;;;;5071064;28;20050;-52
2022/03/17 10:38:12;;;;;;;8.38;3.60;;;11.40;99.90;;;;;;5074002;28;20036;-52
2022/03/17 10:40:39;;;;;;;7.97;3.45;;;11.60;99.90;;;;;;5085633;28;20513;-52
2022/03/17 10:43:18;;;;;;;10.75;3.28;;;11.60;99.90;;;;;;5067703;28;20081;-52
2022/03/17 10:45:45;;;;;;;9.95;4.43;;;12.10;99.90;;;;;;5072897;28;20380;-52
2022/03/17 10:48:11;;;;;;;12.07;4.25;;;12.30;99.90;;;;;;5069855;28;20140;-53
2022/03/17 10:50:42;;;;;;;5.80;3.47;;;12.30;99.90;;;;;;5070609;28;20024;-52
2022/03/17 10:53:09;;;;;;;7.72;3.10;;;12.50;99.90;;;;;;5073287;28;20194;-52
2022/03/17 10:55:36;;;;;;;6.13;3.80;;;12.40;99.90;;;;;;5070205;28;20489;-52
2022/03/17 10:58:17;;;;;;;7.25;3.17;;;12.30;99.90;;;;;;5072073;28;20054;-53
2022/03/17 11:00:45;;;;;;;7.60;3.22;;;12.30;99.90;;;;;;5068379;28;20085;-53
2022/03/17 11:03:12;;;;;;;7.10;3.70;;;12.20;99.90;;;;;;5073276;28;20012;-53
2022/03/17 11:05:38;;;;;;;4.57;2.42;;;12.30;99.90;;;;;;5071087;28;20033;-53
2022/03/17 11:08:09;;;;;;;6.05;2.75;;;12.40;99.90;;;;;;5078004;28;20059;-53
2022/03/17 11:10:44;;;;;;;10.10;3.45;;;12.30;99.90;;;;;;5072240;28;20032;-53
2022/03/17 11:13:11;;;;;;;8.18;2.90;;;12.50;99.90;;;;;;5075103;28;20488;-53
2022/03/17 11:16:05;;;;;;;5.85;2.55;;;12.60;99.90;;;;;;5074299;28;20047;-53
2022/03/17 11:18:34;;;;;;;9.20;2.72;;;12.40;99.90;;;;;;5072212;28;20459;-53
2022/03/17 11:21:19;;;;;;;4.40;2.75;;;12.90;99.90;;;;;;5072360;28;20033;-53
2022/03/17 11:23:59;;;;;;;7.05;2.90;;;13.30;99.90;;;;;;5064718;28;20043;-53
2022/03/17 11:26:37;;;;;;;13.98;3.10;;;13.30;99.90;;;;;;5067956;28;20148;-52
2022/03/17 11:29:25;;;;;;;10.20;2.72;;;13.40;99.90;;;;;;5065523;28;20350;-52
2022/03/17 11:31:56;;;;;;;14.52;2.88;;;14.00;99.90;;;;;;5066573;28;20132;-53
2022/03/17 11:34:42;;;;;;;13.73;3.28;;;14.20;99.90;;;;;;5067543;28;20024;-53
2022/03/17 11:37:19;;;;;;;13.55;2.95;;;14.20;99.90;;;;;;5066478;28;20602;-54
2022/03/17 11:39:58;;;;;;;7.75;3.20;;;14.30;99.90;;;;;;5078568;28;20051;-53
2022/03/17 11:42:43;;;;;;;8.63;3.13;;;14.10;99.90;;;;;;5072551;28;20024;-53
2022/03/17 11:45:11;;;;;;;7.70;2.95;;;14.10;99.90;;;;;;5070126;28;20028;-54
2022/03/17 11:47:42;;;;;;;11.68;3.15;;;13.90;99.90;;;;;;5075912;28;20104;-54
2022/03/17 11:50:27;;;;;;;13.20;3.47;;;14.20;99.90;;;;;;5074742;28;20043;-53
2022/03/17 11:52:57;;;;;;;11.57;3.42;;;14.30;99.90;;;;;;5074385;28;20419;-54
2022/03/17 11:55:52;;;;;;;13.57;2.97;;;14.50;99.90;;;;;;5074056;28;20035;-53
2022/03/17 11:58:24;;;;;;;12.80;4.25;;;15.00;99.90;;;;;;5069251;28;20048;-53
2022/03/17 12:01:02;;;;;;;11.77;3.58;;;14.90;99.90;;;;;;5072982;28;20481;-53
2022/03/17 12:03:41;;;;;;;13.60;4.40;;;14.90;99.90;;;;;;5079104;28;20024;-54
2022/03/17 12:06:20;;;;;;;16.02;3.83;;;15.00;99.90;;;;;;5074077;28;20027;-54
2022/03/17 12:09:28;;;;;;;9.25;3.50;;;14.80;99.90;;;;;;5070834;28;20055;-53
2022/03/17 12:11:55;;;;;;;6.80;3.03;;;15.00;99.90;;;;;;5058793;28;20113;-53
2022/03/17 12:14:25;;;;;;;9.18;3.63;;;14.90;99.90;;;;;;5077178;28;20102;-55
2022/03/17 12:17:04;;;;;;;8.52;3.40;;;14.50;99.90;;;;;;5077039;28;20041;-54
2022/03/17 12:19:39;;;;;;;7.75;2.92;;;14.40;99.90;;;;;;5072934;28;20048;-54
2022/03/17 12:22:07;;;;;;;9.27;3.80;;;14.30;99.90;;;;;;5070534;28;20025;-54
2022/03/17 12:24:48;;;;;;;6.53;3.65;;;14.20;99.90;;;;;;5075778;28;20021;-54
2022/03/17 12:27:30;;;;;;;13.38;3.70;;;14.30;99.90;;;;;;5074210;28;20039;-54
2022/03/17 12:30:06;;;;;;;6.63;3.70;;;14.50;99.90;;;;;;5078370;28;20020;-53
2022/03/17 12:32:34;;;;;;;9.10;3.42;;;14.60;99.90;;;;;;5083544;28;20492;-53
2022/03/17 12:35:01;;;;;;;10.07;3.35;;;14.50;99.90;;;;;;5077756;28;20512;-54
2022/03/17 12:37:29;;;;;;;8.95;3.95;;;14.60;99.90;;;;;;5081667;28;20028;-53
2022/03/17 12:39:58;;;;;;;6.57;3.78;;;14.70;99.90;;;;;;5083150;28;20023;-54
2022/03/17 12:42:26;;;;;;;9.65;3.13;;;15.10;99.90;;;;;;5074021;28;20028;-53
2022/03/17 12:44:56;;;;;;;9.93;3.28;;;14.80;99.90;;;;;;5074454;28;20028;-53
2022/03/17 12:47:26;;;;;;;8.20;3.40;;;14.40;99.90;;;;;;5091057;28;20028;-53
2022/03/17 12:49:53;;;;;;;6.80;3.42;;;14.40;99.90;;;;;;5074461;28;20028;-54
2022/03/17 12:52:22;;;;;;;8.95;3.42;;;14.30;99.90;;;;;;5071518;28;20024;-54
2022/03/17 12:54:49;;;;;;;5.78;3.33;;;14.70;99.10;;;;;;5075402;28;20024;-54
2022/03/17 12:57:15;;;;;;;9.20;3.78;;;14.80;99.30;;;;;;5072850;28;20209;-54
2022/03/17 12:59:40;;;;;;;15.75;4.15;;;14.80;99.50;;;;;;5078021;28;20516;-54
2022/03/17 13:02:07;;;;;;;18.73;4.72;;;14.90;97.90;;;;;;5071586;28;20032;-53
2022/03/17 13:04:39;;;;;;;20.65;4.60;;;14.80;96.70;;;;;;5075111;28;20274;-54